Pagina principale
METAR-TAF:

METAR-TAF

Aeroporti :

Wiener Neustadt, Austria

latitudine: 47-50-36N, longitudine: 016-15-29E, altezza: 272 m

Osservazione

Il bollettino è stato emesso 5 ore e 54 minuti fa, alle 18:00 UTC
Vento 4 kt da est/sud-est
Temperature
Pressione
Visibilità 10 km o più
nessuna nube inferiore a 1500 m e nessun cumulonembo

METAR: LOAN 191800Z 10504KT CAVOK ///// Q////

Ora: 01:54 (23:54 UTC)

Previsione

Il bollettino è stato emesso 12 ore e 39 minuti fa, alle 11:15 UTC
Previsione valida dal 19 alle 12 UTC al 19 alle 21 UTC
Vento 4 kt da est/sud-est
Visibilità 10 km o più
nessuna nube inferiore a 1500 m e nessun cumulonembo

TAF: LOAN 191115Z 1912/1921 11004KT CAVOK

Osservazioni e previsioni meteorologiche di più di 4000 aeroporti (messaggi METAR e TAF).

Le stazioni disponibili sono rappresentate dai dischi gialli e rossi sulla carta.

Puntare il mouse per vedere il nome della stazione.

Clicca sopra per visualizzare le osservazioni e previsioni meteorologiche.

Per cambiare la mappa : fare clic sui pulsanti verdi con una croce nera per ingrandire, il pulsante verde con un trattino per diminuire, o sulla freccia verde per le mappe adiacenti.


METAR-TAF: